Terminal Aerodrome Forecast
Issued by NWS

Home | Current Version | Previous Version | Text Only | Print | Product List | Glossary On
Versions: 1 2 3 4 5 6 7 8 9 10 11 12 13 14 15
000
FTUS43 KIND 242325
TAFLAF
TAF
KLAF 242325Z 2500/2524 35007KT P6SM RA OVC040
     FM250200 35008KT 6SM RA OVC020
     FM250600 34009KT P6SM VCSH OVC010
     FM250900 33008KT P6SM VCSH OVC008
     FM251200 33009KT P6SM OVC008
     FM251800 32011KT P6SM BKN020
     FM252200 32010KT P6SM BKN035
      AMD LTD TO CLD VIS AND WIND 2501/2513=

USA.gov is the U.S. government's official web portal to all federal, state and local government web resources and services.